createdAt,value
2018-11-20T00:03:23.590Z,4.40
2018-11-20T00:06:23.631Z,4.20
2018-11-20T00:09:23.052Z,4.10
2018-11-20T00:15:13.405Z,4.00
2018-11-20T00:21:22.180Z,4.00
2018-11-20T00:24:28.700Z,3.90
2018-11-20T00:30:36.071Z,3.70
2018-11-20T00:33:38.732Z,3.70
2018-11-20T00:36:38.849Z,3.70
2018-11-20T00:39:38.665Z,3.80
2018-11-20T00:42:38.457Z,3.80
2018-11-20T00:45:45.223Z,3.90
2018-11-20T00:48:53.705Z,4.00
2018-11-20T00:52:01.145Z,4.10
2018-11-20T00:55:08.008Z,4.10
2018-11-20T00:58:33.024Z,4.10
2018-11-20T01:01:39.813Z,4.10
2018-11-20T01:04:46.658Z,4.20
2018-11-20T01:07:53.663Z,4.10
2018-11-20T01:11:00.826Z,4.20
2018-11-20T01:14:07.738Z,4.20
2018-11-20T01:17:14.601Z,4.30
2018-11-20T01:20:21.460Z,4.30
2018-11-20T01:23:28.269Z,4.20
2018-11-20T01:26:35.194Z,4.30
2018-11-20T01:29:42.118Z,4.30
2018-11-20T01:32:40.998Z,4.40
2018-11-20T01:35:48.219Z,4.40
2018-11-20T01:38:54.955Z,4.50
2018-11-20T01:42:02.069Z,4.40
2018-11-20T01:48:34.363Z,4.40
2018-11-20T01:51:41.205Z,4.40
2018-11-20T01:54:48.368Z,4.40
2018-11-20T01:57:55.581Z,4.40
2018-11-20T02:01:02.435Z,4.40
2018-11-20T02:04:09.268Z,4.50
2018-11-20T02:07:07.660Z,4.50
2018-11-20T02:10:14.522Z,4.50
2018-11-20T02:13:40.766Z,4.50
2018-11-20T02:16:48.976Z,4.50
2018-11-20T02:19:56.210Z,4.60
2018-11-20T02:23:03.332Z,4.50
2018-11-20T02:26:10.200Z,4.60
2018-11-20T02:29:17.036Z,4.50
2018-11-20T02:32:23.891Z,4.50
2018-11-20T02:35:30.758Z,4.50
2018-11-20T02:38:37.607Z,4.50
2018-11-20T02:41:44.452Z,4.40
2018-11-20T02:51:15.344Z,4.50
2018-11-20T02:54:22.263Z,4.40
2018-11-20T02:57:29.152Z,4.40
2018-11-20T03:00:36.036Z,4.40
2018-11-20T03:03:43.024Z,4.50
2018-11-20T03:06:50.138Z,4.40
2018-11-20T03:09:57.297Z,4.40
2018-11-20T03:16:28.616Z,4.40
2018-11-20T03:19:35.430Z,4.40
2018-11-20T03:22:42.525Z,4.40
2018-11-20T03:26:08.734Z,4.40
2018-11-20T03:32:17.700Z,4.50
2018-11-20T03:35:24.731Z,4.50
2018-11-20T03:38:31.847Z,4.50
2018-11-20T03:41:29.079Z,4.40
2018-11-20T03:44:36.007Z,4.30
2018-11-20T03:47:42.939Z,4.40
2018-11-20T03:50:49.709Z,4.40
2018-11-20T03:53:56.541Z,4.40
2018-11-20T03:57:03.611Z,4.40
2018-11-20T04:00:10.445Z,4.50
2018-11-20T04:03:17.385Z,4.40
2018-11-20T04:06:24.550Z,4.50
2018-11-20T04:09:31.371Z,4.50
2018-11-20T04:12:38.199Z,4.50
2018-11-20T04:18:50.825Z,4.60
2018-11-20T04:21:57.921Z,4.50
2018-11-20T04:25:04.801Z,4.60
2018-11-20T04:28:11.669Z,4.50
2018-11-20T04:31:26.066Z,4.60
2018-11-20T04:34:32.912Z,4.60
2018-11-20T04:37:40.007Z,4.60
2018-11-20T04:40:46.868Z,4.60
2018-11-20T04:43:53.717Z,4.60
2018-11-20T04:47:00.835Z,4.60
2018-11-20T04:50:07.973Z,4.60
2018-11-20T04:53:02.864Z,4.70
2018-11-20T04:56:09.750Z,4.60
2018-11-20T04:59:16.577Z,4.50
2018-11-20T05:02:23.848Z,4.50
2018-11-20T05:05:30.702Z,4.50
2018-11-20T05:08:38.302Z,4.60
2018-11-20T05:11:45.223Z,4.60
2018-11-20T05:14:52.142Z,4.60
2018-11-20T05:17:58.981Z,4.60
2018-11-20T05:21:05.849Z,4.70
2018-11-20T05:24:12.936Z,4.70
2018-11-20T05:27:20.076Z,4.60
2018-11-20T05:30:27.113Z,4.60
2018-11-20T05:33:33.962Z,4.70
2018-11-20T05:36:40.818Z,4.60
2018-11-20T05:39:47.917Z,4.60
2018-11-20T05:42:54.773Z,4.60
2018-11-20T05:46:01.612Z,4.60
2018-11-20T05:49:08.423Z,4.60
2018-11-20T05:52:15.265Z,4.50
2018-11-20T05:55:24.532Z,4.50
2018-11-20T05:58:31.380Z,4.50
2018-11-20T06:01:56.442Z,4.50
2018-11-20T06:05:03.308Z,4.50
2018-11-20T06:08:10.143Z,4.50
2018-11-20T06:11:16.974Z,4.50
2018-11-20T06:14:23.901Z,4.60
2018-11-20T06:23:56.462Z,4.50
2018-11-20T06:30:33.574Z,4.60
2018-11-20T06:33:40.427Z,4.50
2018-11-20T06:36:47.561Z,4.60
2018-11-20T06:39:54.458Z,4.70
2018-11-20T06:43:01.602Z,4.60
2018-11-20T06:46:08.467Z,4.60
2018-11-20T06:49:15.286Z,4.60
2018-11-20T06:52:22.128Z,4.60
2018-11-20T06:55:29.007Z,4.50
2018-11-20T06:58:35.832Z,4.50
2018-11-20T07:01:42.747Z,4.60
2018-11-20T07:04:49.564Z,4.60
2018-11-20T07:07:56.566Z,4.60
2018-11-20T07:11:03.326Z,4.50
2018-11-20T07:14:29.623Z,4.50
2018-11-20T07:17:55.835Z,4.60
2018-11-20T07:21:02.744Z,4.50
2018-11-20T07:24:09.703Z,4.50
2018-11-20T07:27:16.549Z,4.40
2018-11-20T07:30:23.501Z,4.50
2018-11-20T07:33:30.342Z,4.40
2018-11-20T07:36:37.274Z,4.50
2018-11-20T07:39:44.054Z,4.50
2018-11-20T07:42:50.901Z,4.40
2018-11-20T07:45:57.878Z,4.50
2018-11-20T07:49:04.763Z,4.50
2018-11-20T07:52:11.592Z,4.40
2018-11-20T07:55:18.659Z,4.40
2018-11-20T07:58:25.829Z,4.40
2018-11-20T08:01:32.683Z,4.40
2018-11-20T08:04:39.543Z,4.30
2018-11-20T08:07:46.372Z,4.30
2018-11-20T08:10:53.240Z,4.40
2018-11-20T08:14:00.121Z,4.30
2018-11-20T08:17:06.963Z,4.50
2018-11-20T08:20:13.846Z,4.50
2018-11-20T08:23:20.659Z,4.50
2018-11-20T08:26:27.740Z,4.50
2018-11-20T08:29:34.400Z,4.50
2018-11-20T08:32:41.215Z,4.50
2018-11-20T08:35:38.848Z,4.40
2018-11-20T08:38:46.797Z,4.40
2018-11-20T08:41:53.648Z,4.40
2018-11-20T08:45:00.500Z,4.40
2018-11-20T08:48:07.389Z,4.50
2018-11-20T08:51:14.207Z,4.50
2018-11-20T08:54:21.052Z,4.50
2018-11-20T08:57:27.960Z,4.50
2018-11-20T09:00:34.814Z,4.50
2018-11-20T09:03:40.555Z,4.40
2018-11-20T09:06:47.384Z,4.40
2018-11-20T09:09:56.897Z,4.50
2018-11-20T09:16:27.115Z,4.50
2018-11-20T09:19:33.912Z,4.50
2018-11-20T09:22:40.855Z,4.50
2018-11-20T09:25:47.768Z,4.50
2018-11-20T09:28:54.939Z,4.50
2018-11-20T09:32:01.812Z,4.60
2018-11-20T09:35:08.746Z,4.50
2018-11-20T09:38:15.495Z,4.60
2018-11-20T09:41:22.347Z,4.60
2018-11-20T09:44:31.444Z,4.70
2018-11-20T09:47:38.367Z,4.70
2018-11-20T09:50:45.202Z,4.70
2018-11-20T09:53:52.266Z,4.80
2018-11-20T09:56:59.391Z,4.80
2018-11-20T10:00:06.519Z,4.80
2018-11-20T10:03:13.364Z,4.80
2018-11-20T10:06:20.218Z,4.80
2018-11-20T10:09:27.824Z,4.80
2018-11-20T10:12:34.675Z,4.90
2018-11-20T10:15:41.494Z,4.80
2018-11-20T10:21:52.670Z,4.90
2018-11-20T10:24:59.917Z,4.90
2018-11-20T10:28:06.636Z,4.80
2018-11-20T10:31:13.819Z,4.80
2018-11-20T10:34:20.760Z,4.80
2018-11-20T10:37:14.377Z,4.90
2018-11-20T10:43:22.262Z,4.90
2018-11-20T10:46:31.574Z,5.00
2018-11-20T10:49:38.705Z,5.10
2018-11-20T10:52:37.696Z,5.00
2018-11-20T10:55:37.553Z,5.00
2018-11-20T10:58:37.382Z,5.20
2018-11-20T11:01:36.800Z,5.10
2018-11-20T11:04:34.596Z,5.10
2018-11-20T11:07:34.485Z,5.20
2018-11-20T11:10:22.179Z,5.10
2018-11-20T11:13:29.000Z,5.10
2018-11-20T11:16:36.096Z,5.00
2018-11-20T11:19:39.976Z,5.10
2018-11-20T11:22:46.792Z,5.10
2018-11-20T11:25:47.295Z,5.10
2018-11-20T11:28:41.744Z,5.10
2018-11-20T11:31:48.604Z,5.10
2018-11-20T11:34:55.433Z,5.00
2018-11-20T11:38:02.349Z,5.00
2018-11-20T11:41:09.210Z,5.00
2018-11-20T11:44:17.013Z,5.10
2018-11-20T11:47:23.869Z,5.20
2018-11-20T11:50:30.683Z,5.20
2018-11-20T11:53:37.626Z,5.20
2018-11-20T11:56:43.478Z,5.10
2018-11-20T11:59:50.349Z,5.10
2018-11-20T12:06:03.281Z,5.10
2018-11-20T12:09:10.136Z,5.00
2018-11-20T12:12:16.994Z,5.00
2018-11-20T12:15:24.443Z,5.10
2018-11-20T12:18:31.290Z,5.10
2018-11-20T12:21:38.132Z,5.00
2018-11-20T12:24:45.625Z,5.00
2018-11-20T12:27:51.911Z,4.90
2018-11-20T12:30:58.754Z,5.00
2018-11-20T12:34:05.608Z,5.00
2018-11-20T12:37:12.707Z,5.00
2018-11-20T12:40:19.590Z,5.10
2018-11-20T12:43:26.412Z,5.10
2018-11-20T12:46:34.577Z,5.10
2018-11-20T12:49:40.073Z,5.20
2018-11-20T12:52:46.886Z,5.10
2018-11-20T12:55:54.880Z,5.10
2018-11-20T13:02:04.538Z,5.00
2018-11-20T13:05:11.424Z,5.00
2018-11-20T13:08:18.452Z,5.10
2018-11-20T13:11:25.286Z,5.10
2018-11-20T13:14:32.124Z,5.20
2018-11-20T13:17:39.807Z,5.10
2018-11-20T13:20:46.562Z,5.10
2018-11-20T13:23:53.431Z,5.10
2018-11-20T13:27:00.357Z,5.00
2018-11-20T13:30:07.201Z,5.20
2018-11-20T13:33:15.887Z,5.20
2018-11-20T13:36:20.915Z,5.00
2018-11-20T13:39:24.112Z,5.00
2018-11-20T13:42:32.486Z,5.00
2018-11-20T13:45:39.581Z,5.10
2018-11-20T13:48:47.355Z,5.00
2018-11-20T13:51:53.246Z,5.00
2018-11-20T13:55:00.077Z,5.00
2018-11-20T13:58:07.198Z,5.00
2018-11-20T14:01:14.019Z,4.90
2018-11-20T14:04:20.861Z,4.90
2018-11-20T14:10:30.555Z,4.90
2018-11-20T14:13:37.463Z,4.90
2018-11-20T14:19:33.161Z,4.80
2018-11-20T14:22:40.289Z,4.80
2018-11-20T14:25:48.042Z,4.90
2018-11-20T14:32:01.588Z,4.80
2018-11-20T14:35:08.700Z,4.80
2018-11-20T14:38:15.578Z,4.60
2018-11-20T14:41:22.431Z,4.60
2018-11-20T14:44:30.005Z,4.50
2018-11-20T14:47:37.100Z,4.40
2018-11-20T14:50:33.788Z,4.50
2018-11-20T14:53:40.633Z,4.40
2018-11-20T14:56:47.755Z,4.30
2018-11-20T14:59:54.546Z,4.40
2018-11-20T15:03:01.415Z,4.30
2018-11-20T15:09:32.958Z,4.20
2018-11-20T15:12:39.815Z,4.10
2018-11-20T15:15:46.642Z,3.90
2018-11-20T15:18:50.283Z,3.80
2018-11-20T15:21:57.110Z,3.60
2018-11-20T15:27:44.606Z,3.50
2018-11-20T15:30:51.441Z,3.50
2018-11-20T15:33:49.980Z,3.60
2018-11-20T15:36:56.963Z,3.60
2018-11-20T15:40:04.164Z,3.50
2018-11-20T15:43:11.831Z,3.40
2018-11-20T15:46:18.954Z,3.30
2018-11-20T15:49:26.057Z,3.30
2018-11-20T15:52:21.077Z,3.30
2018-11-20T15:55:27.913Z,3.30
2018-11-20T15:58:54.146Z,3.20
2018-11-20T16:02:01.278Z,3.20
2018-11-20T16:05:08.887Z,3.20
2018-11-20T16:08:16.025Z,3.10
2018-11-20T16:11:22.885Z,3.20
2018-11-20T16:14:29.726Z,3.20
2018-11-20T16:17:36.873Z,3.20
2018-11-20T16:20:44.109Z,3.20
2018-11-20T16:23:50.958Z,3.10
2018-11-20T16:26:58.122Z,3.10
2018-11-20T16:30:05.026Z,3.10
2018-11-20T16:33:12.107Z,3.10
2018-11-20T16:36:19.230Z,3.00
2018-11-20T16:39:27.271Z,3.10
2018-11-20T16:45:54.591Z,3.10
2018-11-20T16:49:01.496Z,3.10
2018-11-20T16:52:08.325Z,3.00
2018-11-20T16:55:09.041Z,3.10
2018-11-20T16:58:15.932Z,3.10
2018-11-20T17:01:22.752Z,3.10
2018-11-20T17:04:29.614Z,3.20
2018-11-20T17:07:36.550Z,3.10
2018-11-20T17:10:43.485Z,3.20
2018-11-20T17:16:50.466Z,3.10
2018-11-20T17:19:57.330Z,3.10
2018-11-20T17:23:08.232Z,3.20
2018-11-20T17:26:11.024Z,3.20
2018-11-20T17:29:17.873Z,3.40
2018-11-20T17:32:24.692Z,3.30
2018-11-20T17:35:31.865Z,3.40
2018-11-20T17:38:58.368Z,3.30
2018-11-20T17:42:05.203Z,3.30
2018-11-20T17:45:13.097Z,3.30
2018-11-20T17:48:19.910Z,3.30
2018-11-20T17:51:26.746Z,3.20
2018-11-20T17:54:31.280Z,3.20
2018-11-20T17:57:38.112Z,3.20
2018-11-20T18:00:44.940Z,3.20
2018-11-20T18:03:51.748Z,3.20
2018-11-20T18:06:58.577Z,3.30
2018-11-20T18:10:05.413Z,3.30
2018-11-20T18:13:12.231Z,3.30
2018-11-20T18:16:19.131Z,3.30
2018-11-20T18:19:26.006Z,3.40
2018-11-20T18:22:32.846Z,3.40
2018-11-20T18:25:39.681Z,3.30
2018-11-20T18:28:46.566Z,3.30
2018-11-20T18:31:53.404Z,3.30
2018-11-20T18:35:00.219Z,3.30
2018-11-20T18:38:04.898Z,3.30
2018-11-20T18:41:11.673Z,3.30
2018-11-20T18:44:18.499Z,3.40
2018-11-20T18:47:25.679Z,3.40
2018-11-20T18:56:39.609Z,3.40
2018-11-20T18:59:46.456Z,3.40
2018-11-20T19:02:53.600Z,3.30
2018-11-20T19:06:00.433Z,3.40
2018-11-20T19:09:07.574Z,3.40
2018-11-20T19:15:21.479Z,3.60
2018-11-20T19:18:28.451Z,3.50
2018-11-20T19:21:35.445Z,3.60
2018-11-20T19:24:42.534Z,3.60
2018-11-20T19:27:49.355Z,3.70
2018-11-20T19:30:56.219Z,3.70
2018-11-20T19:34:03.042Z,3.70
2018-11-20T19:37:10.209Z,3.70
2018-11-20T19:40:17.313Z,3.70
2018-11-20T19:43:24.178Z,3.60
2018-11-20T19:46:31.054Z,3.70
2018-11-20T19:49:37.882Z,3.60
2018-11-20T19:52:44.706Z,3.60
2018-11-20T19:55:51.565Z,3.60
2018-11-20T19:58:58.447Z,3.60
2018-11-20T20:01:46.422Z,3.60
2018-11-20T20:04:54.185Z,3.60
2018-11-20T20:08:00.101Z,3.60
2018-11-20T20:11:07.028Z,3.70
2018-11-20T20:14:18.864Z,3.60
2018-11-20T20:17:25.753Z,3.60
2018-11-20T20:20:34.046Z,3.60
2018-11-20T20:23:40.874Z,3.50
2018-11-20T20:26:47.743Z,3.50
2018-11-20T20:29:54.569Z,3.50
2018-11-20T20:33:01.676Z,3.40
2018-11-20T20:36:08.496Z,3.40
2018-11-20T20:39:15.337Z,3.30
2018-11-20T20:42:24.470Z,3.20
2018-11-20T20:45:25.284Z,3.20
2018-11-20T20:48:35.789Z,3.10
2018-11-20T20:51:39.281Z,3.10
2018-11-20T20:54:46.179Z,3.10
2018-11-20T21:01:03.956Z,3.00
2018-11-20T21:03:59.732Z,3.00
2018-11-20T21:07:06.565Z,3.00
2018-11-20T21:10:13.866Z,3.00
2018-11-20T21:13:20.681Z,3.00
2018-11-20T21:16:20.554Z,3.10
2018-11-20T21:19:27.739Z,3.10
2018-11-20T21:22:34.546Z,3.10
2018-11-20T21:25:41.369Z,3.10
2018-11-20T21:28:48.186Z,3.10
2018-11-20T21:31:55.056Z,3.20
2018-11-20T21:35:01.856Z,3.20
2018-11-20T21:38:12.309Z,3.20
2018-11-20T21:41:19.241Z,3.20
2018-11-20T21:47:24.013Z,3.10
2018-11-20T21:50:29.395Z,3.10
2018-11-20T21:53:29.570Z,3.20
2018-11-20T21:56:29.763Z,3.10
2018-11-20T21:59:29.116Z,3.10
2018-11-20T22:02:28.932Z,3.10
2018-11-20T22:05:35.663Z,3.00
2018-11-20T22:08:35.138Z,3.00
2018-11-20T22:11:34.598Z,3.00
2018-11-20T22:14:34.005Z,3.10
2018-11-20T22:17:33.859Z,3.10
2018-11-20T22:23:59.559Z,3.00
2018-11-20T22:30:20.234Z,3.00
2018-11-20T22:33:16.485Z,3.00
2018-11-20T22:36:16.448Z,3.00
2018-11-20T22:39:03.869Z,3.00
2018-11-20T22:42:03.344Z,2.90
2018-11-20T22:45:06.606Z,2.90
2018-11-20T22:48:05.961Z,2.90
2018-11-20T22:51:08.944Z,2.90
2018-11-20T22:54:12.126Z,3.00
2018-11-20T22:57:12.103Z,3.00
2018-11-20T23:00:12.443Z,3.00
2018-11-20T23:03:04.196Z,3.00
2018-11-20T23:06:04.637Z,3.00
2018-11-20T23:08:45.365Z,3.00
2018-11-20T23:11:26.550Z,3.00
2018-11-20T23:16:50.576Z,2.90
2018-11-20T23:19:31.509Z,2.90
2018-11-20T23:22:12.412Z,2.90
2018-11-20T23:24:53.081Z,2.90
2018-11-20T23:27:34.156Z,2.90
2018-11-20T23:30:15.483Z,2.90
2018-11-20T23:32:56.420Z,2.90
2018-11-20T23:35:36.852Z,2.90
2018-11-20T23:38:17.646Z,2.90
2018-11-20T23:44:17.565Z,2.90
2018-11-20T23:46:58.746Z,2.80
2018-11-20T23:49:39.557Z,2.90
2018-11-20T23:52:20.600Z,2.80
2018-11-20T23:58:09.797Z,2.80
